Time;durP1;ratioP1;P1;durP2;ratioP2;P2;SDS_P1;SDS_P2;PMS_P1;PMS_P2;Temp;Humidity;BMP_temperature;BMP_pressure;BME280_temperature;BME280_humidity;BME280_pressure;Samples;Min_cycle;Max_cycle;Signal;HPM_P1;HPM_P2
2023/08/19 00:00:01;;;;;;;17.35;6.97;;;;;;;;;;5076108;28;20101;-64
2023/08/19 00:03:41;;;;;;;16.80;6.82;;;;;;;;;;5084666;28;20093;-66
2023/08/19 00:07:22;;;;;;;11.95;6.35;;;;;;;;;;5078905;28;20720;-66
2023/08/19 00:11:02;;;;;;;23.85;7.07;;;;;;;;;;5073212;28;20063;-65
2023/08/19 00:14:43;;;;;;;15.60;6.85;;;;;;;;;;5082864;28;20048;-65
2023/08/19 00:18:24;;;;;;;15.95;6.50;;;;;;;;;;5084382;28;20056;-64
2023/08/19 00:22:04;;;;;;;13.43;6.50;;;;;;;;;;5078119;28;20048;-65
2023/08/19 00:25:44;;;;;;;19.58;7.90;;;;;;;;;;5085338;28;20047;-67
2023/08/19 00:29:25;;;;;;;13.45;7.22;;;;;;;;;;5077252;28;20056;-63
2023/08/19 00:33:05;;;;;;;16.70;7.82;;;;;;;;;;5085104;28;20058;-64
2023/08/19 00:36:45;;;;;;;18.80;7.68;;;;;;;;;;5081115;28;20047;-67
2023/08/19 00:40:26;;;;;;;19.42;7.35;;;;;;;;;;5074869;28;20055;-64
2023/08/19 00:44:07;;;;;;;18.10;7.30;;;;;;;;;;5071337;28;20058;-63
2023/08/19 00:47:47;;;;;;;17.98;8.48;;;;;;;;;;5081386;28;20062;-63
2023/08/19 00:51:27;;;;;;;15.68;7.50;;;;;;;;;;5069830;28;20052;-63
2023/08/19 00:55:07;;;;;;;14.65;8.27;;;;;;;;;;5070884;28;20407;-64
2023/08/19 00:58:47;;;;;;;14.77;8.82;;;;;;;;;;5074488;28;20047;-64
2023/08/19 01:02:28;;;;;;;17.48;9.77;;;;;;;;;;5073422;28;20468;-66
2023/08/19 01:06:07;;;;;;;20.25;9.10;;;;;;;;;;5070135;28;20043;-63
2023/08/19 01:09:54;;;;;;;19.48;9.95;;;;;;;;;;5071724;28;20048;-64
2023/08/19 01:13:46;;;;;;;18.92;9.07;;;;;;;;;;5073773;28;20058;-63
2023/08/19 01:17:27;;;;;;;14.50;9.05;;;;;;;;;;5068116;28;20063;-64
2023/08/19 01:21:07;;;;;;;15.98;9.43;;;;;;;;;;5072165;28;20074;-63
2023/08/19 01:24:53;;;;;;;18.50;9.60;;;;;;;;;;5071586;28;20048;-62
2023/08/19 01:28:33;;;;;;;20.65;9.40;;;;;;;;;;5071347;28;20423;-64
2023/08/19 01:32:14;;;;;;;17.98;9.52;;;;;;;;;;5081157;28;20075;-64
2023/08/19 01:35:54;;;;;;;17.25;9.02;;;;;;;;;;5081365;28;20048;-63
2023/08/19 01:39:40;;;;;;;18.58;9.50;;;;;;;;;;5072153;28;20036;-64
2023/08/19 01:43:21;;;;;;;17.10;9.25;;;;;;;;;;5080659;28;20114;-63
2023/08/19 01:47:01;;;;;;;17.70;8.93;;;;;;;;;;5081578;28;20399;-64
2023/08/19 01:50:41;;;;;;;25.05;9.23;;;;;;;;;;5082743;28;20047;-64
2023/08/19 01:54:22;;;;;;;18.33;9.10;;;;;;;;;;5084269;28;20055;-65
2023/08/19 01:58:02;;;;;;;22.30;8.90;;;;;;;;;;5086317;28;20136;-65
2023/08/19 02:01:42;;;;;;;16.90;8.02;;;;;;;;;;5084785;28;20044;-64
2023/08/19 02:05:23;;;;;;;15.70;9.07;;;;;;;;;;5077678;28;20040;-63
2023/08/19 02:09:03;;;;;;;16.92;8.45;;;;;;;;;;5085432;28;20044;-63
2023/08/19 02:12:44;;;;;;;20.30;9.30;;;;;;;;;;5082797;28;20048;-64
2023/08/19 02:16:24;;;;;;;18.85;8.80;;;;;;;;;;5082648;28;20415;-63
2023/08/19 02:20:04;;;;;;;20.38;8.93;;;;;;;;;;5080678;28;20071;-64
2023/08/19 02:23:45;;;;;;;16.85;8.95;;;;;;;;;;5078673;28;20438;-64
2023/08/19 02:27:25;;;;;;;21.77;8.82;;;;;;;;;;5077831;28;20170;-63
2023/08/19 02:31:05;;;;;;;19.90;8.27;;;;;;;;;;5081303;28;20434;-63
2023/08/19 02:34:45;;;;;;;16.75;8.70;;;;;;;;;;5090643;28;20090;-63
2023/08/19 02:38:26;;;;;;;14.38;8.35;;;;;;;;;;5074177;28;20052;-63
2023/08/19 02:42:06;;;;;;;21.48;8.93;;;;;;;;;;5084975;28;20052;-64
2023/08/19 02:45:47;;;;;;;22.83;8.70;;;;;;;;;;5082312;28;20047;-64
2023/08/19 02:49:27;;;;;;;17.77;8.98;;;;;;;;;;5080093;28;20048;-63
2023/08/19 02:53:07;;;;;;;15.93;8.52;;;;;;;;;;5083454;28;20436;-63
2023/08/19 02:56:48;;;;;;;20.33;9.30;;;;;;;;;;5089132;28;20127;-63
2023/08/19 03:00:28;;;;;;;18.95;8.98;;;;;;;;;;5081835;28;20503;-62
2023/08/19 03:04:08;;;;;;;12.82;8.63;;;;;;;;;;5082531;28;20083;-64
2023/08/19 03:07:49;;;;;;;15.35;9.35;;;;;;;;;;5092314;28;20055;-63
2023/08/19 03:11:30;;;;;;;21.83;10.57;;;;;;;;;;5078355;28;20143;-63
2023/08/19 03:15:10;;;;;;;15.93;9.32;;;;;;;;;;5085403;28;20079;-63
2023/08/19 03:18:50;;;;;;;16.38;9.73;;;;;;;;;;5077512;28;20105;-63
2023/08/19 03:22:30;;;;;;;17.85;9.70;;;;;;;;;;5084323;28;20068;-63
2023/08/19 03:26:10;;;;;;;26.15;9.07;;;;;;;;;;5087480;28;20058;-64
2023/08/19 03:29:27;;;;;;;20.13;9.00;;;;;;;;;;5090839;28;20059;-63
2023/08/19 03:31:54;;;;;;;17.52;9.15;;;;;;;;;;5083651;28;20047;-62
2023/08/19 03:34:19;;;;;;;17.60;8.75;;;;;;;;;;5089286;28;20479;-63
2023/08/19 03:36:46;;;;;;;17.60;9.57;;;;;;;;;;5087210;28;20105;-63
2023/08/19 03:39:12;;;;;;;21.42;10.00;;;;;;;;;;5081869;28;20045;-62
2023/08/19 03:41:38;;;;;;;18.65;9.68;;;;;;;;;;5071843;28;20492;-62
2023/08/19 03:44:04;;;;;;;16.83;9.07;;;;;;;;;;5088799;28;20040;-62
2023/08/19 03:46:30;;;;;;;15.98;9.50;;;;;;;;;;5090492;28;20105;-62
2023/08/19 03:48:56;;;;;;;17.67;10.15;;;;;;;;;;5083717;28;20048;-62
2023/08/19 03:51:22;;;;;;;18.15;9.68;;;;;;;;;;5089179;28;20052;-62
2023/08/19 03:53:48;;;;;;;16.67;9.15;;;;;;;;;;5080464;28;20060;-63
2023/08/19 03:56:14;;;;;;;15.90;10.20;;;;;;;;;;5087695;28;20051;-62
2023/08/19 03:58:39;;;;;;;18.42;9.57;;;;;;;;;;5088276;28;20044;-62
2023/08/19 04:01:09;;;;;;;17.70;10.20;;;;;;;;;;5085465;28;20060;-61
2023/08/19 04:03:35;;;;;;;19.55;9.63;;;;;;;;;;5082588;28;20489;-61
2023/08/19 04:06:01;;;;;;;21.48;9.95;;;;;;;;;;5087110;28;20286;-62
2023/08/19 04:08:27;;;;;;;12.48;8.88;;;;;;;;;;5087335;28;20256;-62
2023/08/19 04:10:53;;;;;;;18.42;9.00;;;;;;;;;;5075061;28;20071;-63
2023/08/19 04:13:18;;;;;;;18.92;9.52;;;;;;;;;;5084564;28;20511;-63
2023/08/19 04:15:44;;;;;;;21.13;9.52;;;;;;;;;;5080933;28;20048;-64
2023/08/19 04:18:10;;;;;;;20.48;9.48;;;;;;;;;;5078807;28;20055;-63
2023/08/19 04:20:38;;;;;;;19.83;10.10;;;;;;;;;;5087064;28;20463;-63
2023/08/19 04:23:05;;;;;;;20.80;10.30;;;;;;;;;;5088285;28;20408;-63
2023/08/19 04:25:31;;;;;;;16.38;9.88;;;;;;;;;;5080717;28;20043;-63
2023/08/19 04:27:57;;;;;;;17.05;9.13;;;;;;;;;;5088188;28;20082;-63
2023/08/19 04:30:23;;;;;;;15.40;9.50;;;;;;;;;;5087221;28;20056;-63
2023/08/19 04:32:50;;;;;;;24.50;9.77;;;;;;;;;;5088357;28;20127;-62
2023/08/19 04:35:17;;;;;;;18.33;9.02;;;;;;;;;;5078160;28;20048;-64
2023/08/19 04:37:42;;;;;;;16.35;9.65;;;;;;;;;;5085922;28;20067;-64
2023/08/19 04:40:09;;;;;;;16.02;9.88;;;;;;;;;;5084035;28;20055;-63
2023/08/19 04:42:36;;;;;;;16.42;9.73;;;;;;;;;;5079803;28;20428;-62
2023/08/19 04:45:02;;;;;;;21.80;9.60;;;;;;;;;;5079734;28;20234;-66
2023/08/19 04:47:28;;;;;;;22.63;9.57;;;;;;;;;;5085145;28;20059;-63
2023/08/19 04:49:54;;;;;;;15.60;8.75;;;;;;;;;;5076432;28;20056;-61
2023/08/19 04:52:20;;;;;;;17.77;9.93;;;;;;;;;;5082014;28;20048;-62
2023/08/19 04:54:46;;;;;;;16.58;9.73;;;;;;;;;;5076895;28;20055;-62
2023/08/19 04:57:11;;;;;;;18.88;9.88;;;;;;;;;;5082796;28;20221;-62
2023/08/19 04:59:37;;;;;;;22.20;10.75;;;;;;;;;;5082514;28;20047;-63
2023/08/19 05:02:03;;;;;;;21.38;10.30;;;;;;;;;;5081544;28;20055;-62
2023/08/19 05:04:29;;;;;;;19.13;10.10;;;;;;;;;;5085945;28;20060;-63
2023/08/19 05:06:55;;;;;;;19.52;10.48;;;;;;;;;;5087053;28;20058;-62
2023/08/19 05:09:21;;;;;;;15.38;10.27;;;;;;;;;;5085379;28;20044;-62
2023/08/19 05:11:47;;;;;;;23.25;10.38;;;;;;;;;;5087171;28;20062;-63
2023/08/19 05:14:14;;;;;;;17.13;10.38;;;;;;;;;;5087895;28;20151;-63
2023/08/19 05:16:39;;;;;;;18.08;10.52;;;;;;;;;;5085742;28;20381;-63
2023/08/19 05:19:16;;;;;;;21.63;10.38;;;;;;;;;;5088923;28;20488;-64
2023/08/19 05:21:43;;;;;;;20.30;9.90;;;;;;;;;;5082050;28;20511;-64
2023/08/19 05:24:11;;;;;;;16.05;9.80;;;;;;;;;;5075837;28;20220;-61
2023/08/19 05:26:40;;;;;;;24.48;10.63;;;;;;;;;;5083086;28;20514;-63
2023/08/19 05:29:06;;;;;;;14.27;9.50;;;;;;;;;;5088990;28;20048;-63
2023/08/19 05:31:32;;;;;;;17.80;9.00;;;;;;;;;;5078718;28;20056;-63
2023/08/19 05:33:58;;;;;;;16.30;9.48;;;;;;;;;;5084837;28;20052;-63
2023/08/19 05:36:24;;;;;;;22.60;10.38;;;;;;;;;;5086491;28;20485;-64
2023/08/19 05:38:50;;;;;;;20.98;9.43;;;;;;;;;;5084320;28;20048;-63
2023/08/19 05:41:16;;;;;;;17.67;9.65;;;;;;;;;;5082297;28;20062;-62
2023/08/19 05:43:42;;;;;;;19.58;9.63;;;;;;;;;;5078419;28;20052;-61
2023/08/19 05:46:08;;;;;;;20.30;9.57;;;;;;;;;;5083053;28;20058;-63
2023/08/19 05:48:34;;;;;;;16.02;9.60;;;;;;;;;;5079404;28;20048;-62
2023/08/19 05:51:00;;;;;;;17.00;10.13;;;;;;;;;;5080455;28;20049;-62
2023/08/19 05:53:27;;;;;;;19.35;10.52;;;;;;;;;;5086976;28;20062;-61
2023/08/19 05:55:52;;;;;;;16.33;10.30;;;;;;;;;;5083731;28;20044;-63
2023/08/19 05:58:19;;;;;;;18.20;8.93;;;;;;;;;;5084902;28;20113;-63
2023/08/19 06:00:44;;;;;;;16.77;10.02;;;;;;;;;;5080621;28;20040;-62
2023/08/19 06:03:10;;;;;;;16.27;9.63;;;;;;;;;;5087272;28;20048;-63
2023/08/19 06:05:37;;;;;;;12.23;7.57;;;;;;;;;;5080527;28;20480;-63
2023/08/19 06:08:06;;;;;;;17.17;9.30;;;;;;;;;;5083707;28;20056;-64
2023/08/19 06:10:32;;;;;;;16.27;8.80;;;;;;;;;;5084213;28;20125;-62
2023/08/19 06:12:58;;;;;;;20.17;8.60;;;;;;;;;;5088946;28;20040;-63
2023/08/19 06:15:24;;;;;;;20.20;8.48;;;;;;;;;;5087379;28;20113;-63
2023/08/19 06:17:50;;;;;;;17.08;8.25;;;;;;;;;;5085140;28;20048;-63
2023/08/19 06:20:16;;;;;;;14.18;8.63;;;;;;;;;;5087520;28;20389;-63
2023/08/19 06:22:42;;;;;;;16.48;8.50;;;;;;;;;;5088071;28;20419;-63
2023/08/19 06:25:08;;;;;;;19.98;9.10;;;;;;;;;;5089098;28;20052;-63
2023/08/19 06:27:34;;;;;;;16.33;8.75;;;;;;;;;;5088794;28;20120;-62
2023/08/19 06:30:00;;;;;;;13.63;8.73;;;;;;;;;;5088925;28;20499;-63
2023/08/19 06:32:26;;;;;;;21.23;8.75;;;;;;;;;;5090112;28;20062;-68
2023/08/19 06:34:52;;;;;;;15.13;8.05;;;;;;;;;;5083988;28;20113;-65
2023/08/19 06:37:20;;;;;;;28.45;9.68;;;;;;;;;;5087876;28;20123;-63
2023/08/19 06:39:49;;;;;;;22.15;10.07;;;;;;;;;;5089089;28;20048;-64
2023/08/19 06:42:16;;;;;;;18.35;9.95;;;;;;;;;;5084581;28;20049;-62
2023/08/19 06:44:43;;;;;;;21.17;9.43;;;;;;;;;;5074679;28;20147;-64
2023/08/19 06:47:10;;;;;;;21.63;10.23;;;;;;;;;;5086718;28;20044;-63
2023/08/19 06:49:39;;;;;;;16.13;9.95;;;;;;;;;;5079596;28;20048;-63
2023/08/19 06:52:05;;;;;;;24.25;11.57;;;;;;;;;;5083691;28;20261;-63
2023/08/19 06:54:32;;;;;;;23.55;11.60;;;;;;;;;;5080975;28;20048;-63
2023/08/19 06:57:03;;;;;;;23.40;11.90;;;;;;;;;;5086421;28;20056;-64
2023/08/19 06:59:36;;;;;;;14.25;10.50;;;;;;;;;;5086472;28;20135;-63
2023/08/19 07:02:04;;;;;;;17.20;11.52;;;;;;;;;;5087909;28;20036;-63
2023/08/19 07:04:30;;;;;;;18.45;10.38;;;;;;;;;;5087520;28;20492;-64
2023/08/19 07:06:59;;;;;;;20.40;12.00;;;;;;;;;;5089893;28;20040;-64
2023/08/19 07:09:26;;;;;;;20.50;10.50;;;;;;;;;;5083344;28;20494;-63
2023/08/19 07:11:56;;;;;;;20.65;10.45;;;;;;;;;;5069295;28;20056;-63
2023/08/19 07:14:26;;;;;;;21.50;11.63;;;;;;;;;;5087098;28;20105;-64
2023/08/19 07:16:55;;;;;;;32.13;10.65;;;;;;;;;;5084609;28;20618;-65
2023/08/19 07:19:41;;;;;;;24.65;10.77;;;;;;;;;;5077635;28;20056;-65
2023/08/19 07:22:09;;;;;;;17.77;11.05;;;;;;;;;;5080745;28;20044;-63
2023/08/19 07:24:35;;;;;;;23.65;10.30;;;;;;;;;;5081742;28;20047;-65
2023/08/19 07:27:06;;;;;;;23.98;14.38;;;;;;;;;;5084971;28;20040;-67
2023/08/19 07:29:32;;;;;;;20.95;10.10;;;;;;;;;;5091471;28;20058;-65
2023/08/19 07:31:58;;;;;;;21.95;9.68;;;;;;;;;;5085219;28;20044;-65
2023/08/19 07:34:24;;;;;;;19.08;10.65;;;;;;;;;;5083470;28;20052;-65
2023/08/19 07:36:50;;;;;;;15.65;9.35;;;;;;;;;;5081667;28;20507;-66
2023/08/19 07:39:16;;;;;;;18.05;9.18;;;;;;;;;;5077853;28;20448;-65
2023/08/19 07:41:42;;;;;;;17.60;10.23;;;;;;;;;;5078477;28;20048;-66
2023/08/19 07:44:08;;;;;;;23.98;10.40;;;;;;;;;;5074736;28;20037;-65
2023/08/19 07:46:35;;;;;;;23.95;11.00;;;;;;;;;;5083428;28;20048;-65
2023/08/19 07:49:01;;;;;;;16.90;10.13;;;;;;;;;;5090403;28;20047;-67
2023/08/19 07:51:27;;;;;;;18.48;9.95;;;;;;;;;;5082545;28;20052;-66
2023/08/19 07:53:53;;;;;;;21.27;10.70;;;;;;;;;;5077730;28;20049;-65
2023/08/19 07:56:19;;;;;;;20.33;10.05;;;;;;;;;;5080739;28;20048;-66
2023/08/19 07:58:44;;;;;;;21.00;9.30;;;;;;;;;;5086428;28;20055;-66
2023/08/19 08:01:10;;;;;;;21.70;9.70;;;;;;;;;;5083040;28;20044;-66
2023/08/19 08:03:40;;;;;;;16.85;9.70;;;;;;;;;;5079087;28;20106;-66
2023/08/19 08:06:06;;;;;;;21.73;9.48;;;;;;;;;;5085145;28;20048;-67
2023/08/19 08:08:32;;;;;;;19.02;10.00;;;;;;;;;;5088657;28;20444;-66
2023/08/19 08:10:58;;;;;;;21.33;9.65;;;;;;;;;;5079754;28;20060;-66
2023/08/19 08:13:25;;;;;;;21.40;9.55;;;;;;;;;;5084331;28;20048;-66
2023/08/19 08:15:54;;;;;;;18.90;9.75;;;;;;;;;;5087783;28;20450;-64
2023/08/19 08:18:20;;;;;;;16.15;9.50;;;;;;;;;;5079665;28;20070;-66
2023/08/19 08:20:46;;;;;;;15.00;9.30;;;;;;;;;;5077387;28;20059;-64
2023/08/19 08:23:11;;;;;;;24.10;9.85;;;;;;;;;;5075762;28;20048;-66
2023/08/19 08:25:37;;;;;;;23.35;10.65;;;;;;;;;;5081420;28;20056;-67
2023/08/19 08:28:03;;;;;;;14.57;9.32;;;;;;;;;;5084049;28;20400;-67
2023/08/19 08:30:29;;;;;;;17.13;9.73;;;;;;;;;;5083103;28;20504;-67
2023/08/19 08:32:55;;;;;;;21.05;9.68;;;;;;;;;;5081736;28;20038;-68
2023/08/19 08:35:21;;;;;;;14.30;8.80;;;;;;;;;;5075933;28;20052;-66
2023/08/19 08:37:47;;;;;;;18.02;8.30;;;;;;;;;;5078619;28;20055;-66
2023/08/19 08:40:13;;;;;;;17.35;9.52;;;;;;;;;;5078354;28;20094;-66
2023/08/19 08:42:40;;;;;;;16.90;8.32;;;;;;;;;;5081978;28;20625;-66
2023/08/19 08:45:09;;;;;;;17.10;8.07;;;;;;;;;;5080301;28;20052;-65
2023/08/19 08:47:35;;;;;;;15.90;8.43;;;;;;;;;;5083189;28;20068;-67
2023/08/19 08:50:01;;;;;;;17.90;8.65;;;;;;;;;;5080292;28;20047;-65
2023/08/19 08:52:27;;;;;;;18.70;8.45;;;;;;;;;;5081068;28;20739;-64
2023/08/19 08:54:55;;;;;;;17.38;8.52;;;;;;;;;;5082196;28;20052;-65
2023/08/19 08:57:21;;;;;;;13.90;7.78;;;;;;;;;;5080006;28;20545;-64
2023/08/19 08:59:47;;;;;;;16.67;7.30;;;;;;;;;;5081065;28;20562;-66
2023/08/19 09:02:14;;;;;;;16.45;8.13;;;;;;;;;;5078744;28;20135;-65
2023/08/19 09:04:44;;;;;;;19.10;7.95;;;;;;;;;;5084943;28;20051;-65
2023/08/19 09:07:24;;;;;;;14.00;7.53;;;;;;;;;;5084162;28;20106;-66
2023/08/19 09:10:30;;;;;;;14.98;7.35;;;;;;;;;;5072989;28;20518;-65
2023/08/19 09:14:29;;;;;;;31.25;7.30;;;;;;;;;;5069784;28;20052;-66
2023/08/19 09:18:12;;;;;;;20.38;7.82;;;;;;;;;;5075640;28;20105;-64
2023/08/19 09:21:53;;;;;;;15.50;7.82;;;;;;;;;;5081516;28;20136;-64
2023/08/19 09:25:48;;;;;;;12.65;7.80;;;;;;;;;;5077282;28;20058;-64
2023/08/19 09:29:29;;;;;;;18.45;7.97;;;;;;;;;;5074468;28;20063;-64
2023/08/19 09:33:09;;;;;;;18.58;7.60;;;;;;;;;;5081766;28;20052;-64
2023/08/19 09:36:50;;;;;;;14.43;7.25;;;;;;;;;;5070807;28;20119;-64
2023/08/19 09:40:30;;;;;;;14.98;7.60;;;;;;;;;;5074255;28;20431;-66
2023/08/19 09:44:10;;;;;;;15.57;7.88;;;;;;;;;;5080854;28;20079;-65
2023/08/19 09:47:51;;;;;;;14.07;7.30;;;;;;;;;;5075556;28;20046;-64
2023/08/19 09:51:31;;;;;;;13.70;7.70;;;;;;;;;;5071192;28;20055;-64
2023/08/19 09:55:11;;;;;;;15.13;7.50;;;;;;;;;;5079246;28;20055;-64
2023/08/19 09:58:51;;;;;;;12.25;6.90;;;;;;;;;;5068344;28;20044;-64
2023/08/19 10:02:35;;;;;;;16.05;7.03;;;;;;;;;;5069139;28;20054;-65
2023/08/19 10:06:15;;;;;;;11.77;7.00;;;;;;;;;;5071333;28;20131;-62
2023/08/19 10:09:56;;;;;;;14.85;6.93;;;;;;;;;;5072226;28;20048;-60
2023/08/19 10:13:36;;;;;;;11.63;6.25;;;;;;;;;;5077748;28;20125;-62
2023/08/19 10:17:20;;;;;;;13.63;6.85;;;;;;;;;;5073913;28;20048;-62
2023/08/19 10:20:59;;;;;;;12.32;6.25;;;;;;;;;;5067564;28;20426;-63
2023/08/19 10:24:40;;;;;;;15.23;6.60;;;;;;;;;;5069177;28;20137;-64
2023/08/19 10:28:27;;;;;;;16.20;6.78;;;;;;;;;;5069855;28;20043;-62
2023/08/19 10:32:06;;;;;;;12.13;6.20;;;;;;;;;;5067114;28;20095;-63
2023/08/19 10:35:46;;;;;;;15.02;6.00;;;;;;;;;;5065613;28;20428;-63
2023/08/19 10:39:36;;;;;;;14.00;6.85;;;;;;;;;;5071384;28;20113;-63
2023/08/19 10:43:16;;;;;;;14.85;6.45;;;;;;;;;;5070859;28;20288;-65
2023/08/19 10:46:57;;;;;;;9.85;6.13;;;;;;;;;;5072908;28;20052;-65
2023/08/19 10:50:46;;;;;;;15.45;6.15;;;;;;;;;;5067594;28;20530;-64
2023/08/19 10:54:29;;;;;;;13.52;6.55;;;;;;;;;;5081800;28;20413;-63
2023/08/19 10:58:09;;;;;;;13.32;6.15;;;;;;;;;;5078524;28;20044;-64
2023/08/19 11:01:50;;;;;;;12.68;6.15;;;;;;;;;;5074144;28;20060;-64
2023/08/19 11:05:31;;;;;;;13.75;6.40;;;;;;;;;;5074676;28;20439;-63
2023/08/19 11:09:10;;;;;;;10.77;6.10;;;;;;;;;;5077343;28;20092;-64
2023/08/19 11:12:51;;;;;;;11.80;5.75;;;;;;;;;;5081074;28;20058;-64
2023/08/19 11:16:31;;;;;;;9.82;5.53;;;;;;;;;;5073386;28;20699;-65
2023/08/19 11:20:12;;;;;;;10.88;5.10;;;;;;;;;;5072413;28;20641;-63
2023/08/19 11:23:52;;;;;;;12.45;5.45;;;;;;;;;;5068533;28;20044;-63
2023/08/19 11:27:33;;;;;;;10.88;5.55;;;;;;;;;;5072485;28;20498;-63
2023/08/19 11:31:14;;;;;;;10.63;5.10;;;;;;;;;;5083173;28;20036;-62
2023/08/19 11:34:54;;;;;;;12.13;5.53;;;;;;;;;;5075302;28;20408;-63
2023/08/19 11:38:34;;;;;;;10.38;5.22;;;;;;;;;;5076568;28;20459;-62
2023/08/19 11:42:15;;;;;;;8.52;5.00;;;;;;;;;;5071317;28;20079;-63
2023/08/19 11:45:55;;;;;;;12.73;5.30;;;;;;;;;;5067708;28;20151;-63
2023/08/19 11:49:35;;;;;;;12.02;5.07;;;;;;;;;;5069898;28;20082;-66
2023/08/19 11:53:16;;;;;;;12.40;5.22;;;;;;;;;;5069721;28;20048;-62
2023/08/19 11:56:16;;;;;;;10.40;5.13;;;;;;;;;;5075474;28;20067;-62
2023/08/19 11:58:50;;;;;;;13.52;5.07;;;;;;;;;;5077384;28;20125;-62
2023/08/19 12:01:17;;;;;;;11.50;4.40;;;;;;;;;;5078574;28;20044;-61
2023/08/19 12:03:45;;;;;;;7.40;4.68;;;;;;;;;;5081882;28;20064;-62
2023/08/19 12:06:11;;;;;;;11.40;5.00;;;;;;;;;;5074510;28;20048;-63
2023/08/19 12:08:41;;;;;;;8.25;5.20;;;;;;;;;;5079010;28;20361;-61
2023/08/19 12:11:08;;;;;;;8.68;4.68;;;;;;;;;;5063677;28;20109;-61
2023/08/19 12:13:35;;;;;;;14.77;5.38;;;;;;;;;;5078525;28;20056;-60
2023/08/19 12:16:01;;;;;;;10.65;4.78;;;;;;;;;;5078924;28;20158;-61
2023/08/19 12:18:32;;;;;;;12.38;5.43;;;;;;;;;;5080510;28;20066;-64
2023/08/19 12:20:59;;;;;;;14.60;5.10;;;;;;;;;;5079248;28;20036;-63
2023/08/19 12:23:25;;;;;;;12.50;4.80;;;;;;;;;;5072420;28;20098;-62
2023/08/19 12:25:53;;;;;;;11.05;4.32;;;;;;;;;;5072289;28;20075;-62
2023/08/19 12:28:20;;;;;;;11.90;4.82;;;;;;;;;;5072108;28;20045;-64
2023/08/19 12:30:47;;;;;;;16.50;4.93;;;;;;;;;;5079924;28;20139;-59
2023/08/19 12:33:14;;;;;;;10.85;4.50;;;;;;;;;;5069950;28;20476;-61
2023/08/19 12:35:41;;;;;;;9.20;4.22;;;;;;;;;;5080274;28;20065;-62
2023/08/19 12:38:13;;;;;;;8.30;4.38;;;;;;;;;;5081834;28;20050;-61
2023/08/19 12:40:39;;;;;;;7.78;4.28;;;;;;;;;;5081139;28;20052;-61
2023/08/19 12:43:05;;;;;;;9.73;4.63;;;;;;;;;;5074917;28;20056;-61
2023/08/19 12:45:31;;;;;;;7.75;4.22;;;;;;;;;;5075597;28;20055;-62
2023/08/19 12:48:00;;;;;;;11.65;4.20;;;;;;;;;;5081509;28;20143;-62
2023/08/19 12:50:26;;;;;;;11.20;4.40;;;;;;;;;;5083122;28;20276;-61
2023/08/19 12:52:52;;;;;;;9.38;4.32;;;;;;;;;;5077600;28;20052;-61
2023/08/19 12:55:18;;;;;;;8.65;4.03;;;;;;;;;;5085383;28;20047;-62
2023/08/19 12:57:45;;;;;;;8.85;3.47;;;;;;;;;;5085290;28;20052;-61
2023/08/19 13:00:12;;;;;;;7.88;3.45;;;;;;;;;;5071790;28;20050;-59
2023/08/19 13:02:39;;;;;;;8.63;3.28;;;;;;;;;;5083688;28;20109;-61
2023/08/19 13:05:06;;;;;;;7.95;2.97;;;;;;;;;;5084606;28;20442;-62
2023/08/19 13:07:32;;;;;;;8.30;3.08;;;;;;;;;;5084489;28;20063;-64
2023/08/19 13:10:01;;;;;;;9.05;3.08;;;;;;;;;;5079505;28;20488;-62
2023/08/19 13:12:29;;;;;;;5.63;3.15;;;;;;;;;;5075296;28;20218;-62
2023/08/19 13:14:55;;;;;;;6.75;2.90;;;;;;;;;;5080626;28;20103;-62
2023/08/19 13:17:22;;;;;;;4.13;2.53;;;;;;;;;;5083880;28;20048;-61
2023/08/19 13:19:54;;;;;;;8.70;2.80;;;;;;;;;;5088237;28;20135;-62
2023/08/19 13:22:21;;;;;;;4.97;2.78;;;;;;;;;;5080651;28;20047;-60
2023/08/19 13:24:49;;;;;;;7.20;2.72;;;;;;;;;;5077631;28;20394;-62
2023/08/19 13:27:17;;;;;;;6.30;2.60;;;;;;;;;;5081078;28;20458;-62
2023/08/19 13:29:45;;;;;;;9.40;3.42;;;;;;;;;;5083735;28;20084;-61
2023/08/19 13:32:12;;;;;;;7.40;3.30;;;;;;;;;;5075530;28;20056;-62
2023/08/19 13:34:39;;;;;;;6.38;2.50;;;;;;;;;;5083260;28;20056;-60
2023/08/19 13:37:06;;;;;;;5.40;2.53;;;;;;;;;;5075561;28;20052;-63
2023/08/19 13:39:33;;;;;;;6.15;2.70;;;;;;;;;;5073026;28;20048;-61
2023/08/19 13:41:59;;;;;;;9.45;2.80;;;;;;;;;;5081602;28;20492;-62
2023/08/19 13:44:25;;;;;;;6.00;2.88;;;;;;;;;;5072322;28;20067;-63
2023/08/19 13:46:52;;;;;;;11.63;3.03;;;;;;;;;;5081898;28;20047;-62
2023/08/19 13:49:21;;;;;;;5.13;2.60;;;;;;;;;;5079195;28;20435;-62
2023/08/19 13:51:48;;;;;;;6.15;2.53;;;;;;;;;;5074286;28;20067;-63
2023/08/19 13:54:15;;;;;;;8.18;2.78;;;;;;;;;;5073283;28;20457;-62
2023/08/19 13:56:46;;;;;;;10.60;2.97;;;;;;;;;;5073836;28;20503;-61
2023/08/19 13:59:12;;;;;;;8.07;2.55;;;;;;;;;;5086964;28;20060;-62
2023/08/19 14:01:38;;;;;;;8.65;2.90;;;;;;;;;;5081611;28;20059;-60
2023/08/19 14:04:04;;;;;;;9.52;2.92;;;;;;;;;;5074947;28;20376;-62
2023/08/19 14:06:31;;;;;;;7.15;2.88;;;;;;;;;;5085849;28;20051;-62
2023/08/19 14:08:57;;;;;;;4.93;2.63;;;;;;;;;;5081595;28;20244;-62
2023/08/19 14:11:23;;;;;;;7.03;2.83;;;;;;;;;;5085120;28;20123;-62
2023/08/19 14:13:49;;;;;;;10.18;2.95;;;;;;;;;;5072792;28;20140;-62
2023/08/19 14:16:16;;;;;;;4.60;2.45;;;;;;;;;;5085522;28;20044;-62
2023/08/19 14:18:43;;;;;;;8.25;2.97;;;;;;;;;;5082915;28;20056;-61
2023/08/19 14:21:09;;;;;;;6.40;2.67;;;;;;;;;;5086903;28;20048;-63
2023/08/19 14:23:37;;;;;;;8.30;2.97;;;;;;;;;;5079887;28;20529;-63
2023/08/19 14:26:07;;;;;;;8.18;2.90;;;;;;;;;;5082896;28;20048;-63
2023/08/19 14:28:32;;;;;;;10.18;2.90;;;;;;;;;;5085328;28;20063;-64
2023/08/19 14:30:58;;;;;;;4.57;2.40;;;;;;;;;;5089042;28;20044;-62
2023/08/19 14:33:24;;;;;;;6.88;2.40;;;;;;;;;;5089957;28;20488;-62
2023/08/19 14:35:50;;;;;;;10.80;2.47;;;;;;;;;;5091000;28;20051;-62
2023/08/19 14:38:16;;;;;;;8.05;2.80;;;;;;;;;;5086172;28;20044;-62
2023/08/19 14:40:43;;;;;;;12.23;2.70;;;;;;;;;;5084089;28;20086;-63
2023/08/19 14:43:09;;;;;;;8.20;2.53;;;;;;;;;;5088114;28;20117;-61
2023/08/19 14:45:35;;;;;;;5.60;2.35;;;;;;;;;;5078600;28;20130;-62
2023/08/19 14:48:01;;;;;;;5.75;2.28;;;;;;;;;;5087256;28;20068;-61
2023/08/19 14:50:28;;;;;;;8.73;2.35;;;;;;;;;;5086766;28;20504;-61
2023/08/19 14:52:54;;;;;;;7.03;2.10;;;;;;;;;;5082761;28;20052;-61
2023/08/19 14:55:21;;;;;;;3.63;1.75;;;;;;;;;;5084054;28;20044;-60
2023/08/19 14:57:48;;;;;;;6.28;2.00;;;;;;;;;;5082263;28;20153;-63
2023/08/19 15:00:16;;;;;;;5.05;1.98;;;;;;;;;;5088640;28;20048;-61
2023/08/19 15:02:47;;;;;;;7.10;1.90;;;;;;;;;;5084881;28;20549;-60
2023/08/19 15:05:14;;;;;;;5.30;1.70;;;;;;;;;;5088186;28;20105;-62
2023/08/19 15:07:40;;;;;;;4.82;1.50;;;;;;;;;;5083895;28;20048;-61
2023/08/19 15:10:06;;;;;;;5.25;1.67;;;;;;;;;;5076253;28;20051;-62
2023/08/19 15:12:32;;;;;;;4.75;1.65;;;;;;;;;;5080444;28;20120;-61
2023/08/19 15:14:58;;;;;;;6.15;1.88;;;;;;;;;;5086638;28;20059;-61
2023/08/19 15:17:24;;;;;;;3.53;1.52;;;;;;;;;;5089665;28;20044;-65
2023/08/19 15:19:52;;;;;;;5.63;1.45;;;;;;;;;;5088265;28;20059;-62
2023/08/19 15:22:17;;;;;;;8.02;2.03;;;;;;;;;;5085138;28;20097;-62
2023/08/19 15:24:43;;;;;;;6.78;1.92;;;;;;;;;;5088938;28;20052;-62
2023/08/19 15:27:11;;;;;;;3.22;1.45;;;;;;;;;;5086340;28;20040;-62
2023/08/19 15:29:37;;;;;;;6.97;1.70;;;;;;;;;;5084560;28;20127;-63
2023/08/19 15:32:07;;;;;;;3.95;1.60;;;;;;;;;;5082658;28;20268;-61
2023/08/19 15:34:33;;;;;;;5.88;1.80;;;;;;;;;;5083493;28;20515;-61
2023/08/19 15:36:59;;;;;;;4.68;1.90;;;;;;;;;;5088229;28;20051;-62
2023/08/19 15:39:25;;;;;;;8.23;2.00;;;;;;;;;;5080043;28;20063;-62
2023/08/19 15:41:50;;;;;;;5.95;1.98;;;;;;;;;;5078658;28;20048;-62
2023/08/19 15:44:17;;;;;;;6.05;1.70;;;;;;;;;;5083085;28;20424;-62
2023/08/19 15:46:42;;;;;;;5.72;1.60;;;;;;;;;;5081791;28;20455;-63
2023/08/19 15:49:08;;;;;;;6.70;1.90;;;;;;;;;;5080585;28;20051;-63
2023/08/19 15:51:34;;;;;;;4.57;1.58;;;;;;;;;;5078642;28;20056;-62
2023/08/19 15:54:00;;;;;;;5.65;1.90;;;;;;;;;;5073031;28;20101;-63
2023/08/19 15:56:26;;;;;;;6.20;1.92;;;;;;;;;;5064271;28;20416;-68
2023/08/19 15:58:52;;;;;;;6.70;2.22;;;;;;;;;;5082134;28;20044;-66
2023/08/19 16:01:18;;;;;;;7.50;2.30;;;;;;;;;;5078344;28;20047;-70
2023/08/19 16:03:44;;;;;;;6.07;2.03;;;;;;;;;;5081000;28;20804;-67
2023/08/19 16:06:09;;;;;;;8.60;2.80;;;;;;;;;;5075388;28;20045;-66
2023/08/19 16:08:37;;;;;;;7.40;2.10;;;;;;;;;;5071530;28;20181;-70
2023/08/19 16:11:07;;;;;;;6.15;2.20;;;;;;;;;;5077963;28;20459;-64
2023/08/19 16:13:34;;;;;;;6.82;1.92;;;;;;;;;;5075155;28;20519;-68
2023/08/19 16:16:00;;;;;;;5.15;1.70;;;;;;;;;;5079744;28;20536;-67
2023/08/19 16:18:31;;;;;;;5.05;2.00;;;;;;;;;;5084669;28;20064;-68
2023/08/19 16:21:02;;;;;;;5.53;2.08;;;;;;;;;;5084819;28;20096;-67
2023/08/19 16:23:29;;;;;;;7.32;2.00;;;;;;;;;;5082992;28;20109;-68
2023/08/19 16:25:55;;;;;;;5.70;1.90;;;;;;;;;;5073989;28;20127;-69
2023/08/19 16:28:21;;;;;;;3.72;1.65;;;;;;;;;;5083291;28;20052;-67
2023/08/19 16:30:47;;;;;;;5.15;1.95;;;;;;;;;;5076341;28;20054;-67
2023/08/19 16:33:13;;;;;;;5.82;1.75;;;;;;;;;;5068641;28;20508;-66